Time;durP1;ratioP1;P1;durP2;ratioP2;P2;SDS_P1;SDS_P2;PMS_P1;PMS_P2;Temp;Humidity;BMP_temperature;BMP_pressure;BME280_temperature;BME280_humidity;BME280_pressure;Samples;Min_cycle;Max_cycle;Signal;HPM_P1;HPM_P2
2022/07/30 00:02:11;;;;;;;;;;;;;;;18.10;80.83;100983.78;5038350;28;19979;-81
2022/07/30 00:04:38;;;;;;;;;;;;;;;18.03;81.04;100982.94;5039239;28;20020;-81
2022/07/30 00:07:04;;;;;;;;;;;;;;;17.96;80.74;100984.72;5038050;28;19981;-78
2022/07/30 00:09:31;;;;;;;;;;;;;;;17.90;80.96;100980.22;5038291;28;20433;-80
2022/07/30 00:11:57;;;;;;;;;;;;;;;17.88;81.21;100974.31;5039483;28;19921;-82
2022/07/30 00:14:25;;;;;;;;;;;;;;;17.80;81.49;100974.47;5039546;28;19944;-81
2022/07/30 00:16:51;;;;;;;;;;;;;;;17.77;81.73;100985.44;5040520;28;20096;-79
2022/07/30 00:19:19;;;;;;;;;;;;;;;17.74;81.79;100980.53;5039900;28;19968;-80
2022/07/30 00:21:45;;;;;;;;;;;;;;;17.61;82.35;100983.88;5040099;28;19980;-83
2022/07/30 00:24:12;;;;;;;;;;;;;;;17.58;82.63;100979.78;5040207;28;19993;-82
2022/07/30 00:26:38;;;;;;;;;;;;;;;17.57;82.63;100983.44;5036658;28;19991;-80
2022/07/30 00:29:05;;;;;;;;;;;;;;;17.56;83.04;100986.28;5019256;28;19968;-81
2022/07/30 00:31:32;;;;;;;;;;;;;;;17.51;83.26;100978.91;5019254;28;19921;-81
2022/07/30 00:33:58;;;;;;;;;;;;;;;17.45;83.29;100979.72;5020666;28;19964;-80
2022/07/30 00:36:26;;;;;;;;;;;;;;;17.39;83.79;100983.13;5020963;28;19956;-80
2022/07/30 00:38:52;;;;;;;;;;;;;;;17.38;84.10;100985.97;5018534;28;19928;-80
2022/07/30 00:41:19;;;;;;;;;;;;;;;17.30;84.21;100988.75;5018344;28;19957;-80
2022/07/30 00:43:45;;;;;;;;;;;;;;;17.22;84.65;100987.84;5018970;28;19922;-80
2022/07/30 00:46:13;;;;;;;;;;;;;;;17.23;84.95;100984.22;5018781;28;19921;-78
2022/07/30 00:48:40;;;;;;;;;;;;;;;17.22;84.81;100984.41;5019183;28;20384;-80
2022/07/30 00:51:06;;;;;;;;;;;;;;;17.29;84.50;100976.53;5018854;28;20008;-80
2022/07/30 00:53:34;;;;;;;;;;;;;;;17.27;84.34;100984.66;5019062;28;19921;-79
2022/07/30 00:56:01;;;;;;;;;;;;;;;17.18;84.68;100985.78;5017719;28;19925;-78
2022/07/30 00:58:28;;;;;;;;;;;;;;;17.19;84.26;100982.13;5015993;28;19921;-78
2022/07/30 01:00:54;;;;;;;;;;;;;;;17.14;84.42;100977.41;5015916;28;19921;-80
2022/07/30 01:03:21;;;;;;;;;;;;;;;17.12;84.37;100983.91;5017753;28;20355;-79
2022/07/30 01:05:47;;;;;;;;;;;;;;;17.15;84.22;100984.34;5018139;28;19964;-78
2022/07/30 01:08:14;;;;;;;;;;;;;;;17.02;84.74;100986.03;5016993;28;19984;-79
2022/07/30 01:10:41;;;;;;;;;;;;;;;16.95;85.08;100990.47;5017610;28;19991;-80
2022/07/30 01:13:09;;;;;;;;;;;;;;;16.90;85.40;100991.03;5017834;28;20332;-80
2022/07/30 01:15:36;;;;;;;;;;;;;;;16.87;85.30;100994.88;5017245;28;19922;-79
2022/07/30 01:18:04;;;;;;;;;;;;;;;16.82;85.80;100997.25;5017090;28;19932;-78
2022/07/30 01:20:32;;;;;;;;;;;;;;;16.80;85.97;101004.56;5017250;28;19921;-79
2022/07/30 01:23:02;;;;;;;;;;;;;;;16.80;85.72;100993.97;5016741;28;19921;-80
2022/07/30 01:25:43;;;;;;;;;;;;;;;16.80;85.58;100998.44;5017096;28;19922;-79
2022/07/30 01:28:11;;;;;;;;;;;;;;;16.77;85.74;100996.19;5016836;28;19961;-79
2022/07/30 01:30:39;;;;;;;;;;;;;;;16.77;85.81;100994.34;5017223;28;20283;-79
2022/07/30 01:33:08;;;;;;;;;;;;;;;16.75;85.92;100991.06;5017295;28;19993;-78
2022/07/30 01:35:35;;;;;;;;;;;;;;;16.66;86.24;100992.19;5015746;28;20000;-79
2022/07/30 01:38:04;;;;;;;;;;;;;;;16.60;86.55;100984.97;5016053;28;19964;-79
2022/07/30 01:40:31;;;;;;;;;;;;;;;16.60;86.70;100992.91;5015475;28;19928;-79
2022/07/30 01:43:00;;;;;;;;;;;;;;;16.62;86.67;100985.63;5016046;28;20352;-79
2022/07/30 01:45:28;;;;;;;;;;;;;;;16.54;86.70;100989.19;5016805;28;20007;-79
2022/07/30 01:47:55;;;;;;;;;;;;;;;16.47;87.14;100992.78;5016648;28;19921;-80
2022/07/30 01:55:30;;;;;;;;;;;;;;;16.33;87.69;101006.81;4996331;28;20092;-78
2022/07/30 01:57:59;;;;;;;;;;;;;;;16.26;88.15;101002.28;5001922;28;19921;-82
2022/07/30 02:00:26;;;;;;;;;;;;;;;16.21;88.23;100998.53;5002598;28;19929;-80
2022/07/30 02:02:53;;;;;;;;;;;;;;;16.16;88.30;101001.72;5002748;28;19995;-80
2022/07/30 02:05:19;;;;;;;;;;;;;;;16.12;88.65;101000.47;5001112;28;19922;-82
2022/07/30 02:07:49;;;;;;;;;;;;;;;16.08;88.74;101007.09;5001089;28;19929;-78
2022/07/30 02:10:18;;;;;;;;;;;;;;;16.08;88.77;101015.03;5001793;28;19968;-80
2022/07/30 02:12:46;;;;;;;;;;;;;;;16.08;88.95;101012.38;5006538;28;20334;-81
2022/07/30 02:15:17;;;;;;;;;;;;;;;16.03;89.10;101008.69;5007954;28;19957;-81
2022/07/30 02:17:49;;;;;;;;;;;;;;;15.99;89.33;101010.03;5008213;28;19932;-78
2022/07/30 02:20:16;;;;;;;;;;;;;;;15.98;89.27;101011.84;5009150;28;19971;-82
2022/07/30 02:22:44;;;;;;;;;;;;;;;15.89;89.67;101007.66;5008609;28;20016;-84
2022/07/30 02:25:14;;;;;;;;;;;;;;;15.86;89.86;101000.94;5006545;28;19922;-81
2022/07/30 02:27:43;;;;;;;;;;;;;;;15.87;90.04;100993.81;4993685;28;20316;-81
2022/07/30 02:30:11;;;;;;;;;;;;;;;15.86;89.74;101000.09;4984290;28;19922;-79
2022/07/30 02:32:40;;;;;;;;;;;;;;;15.87;90.05;101007.03;4985678;28;19929;-80
2022/07/30 02:35:09;;;;;;;;;;;;;;;15.79;90.27;101009.75;4986120;28;19967;-82
2022/07/30 02:37:37;;;;;;;;;;;;;;;15.73;90.66;101005.19;4984298;28;19932;-81
2022/07/30 02:40:06;;;;;;;;;;;;;;;15.70;90.82;101013.47;4984119;28;20009;-79
2022/07/30 02:42:33;;;;;;;;;;;;;;;15.78;90.74;101001.00;4987814;28;19961;-79
2022/07/30 02:45:01;;;;;;;;;;;;;;;15.75;90.85;101013.75;4987357;28;19922;-81
2022/07/30 02:47:28;;;;;;;;;;;;;;;15.73;90.92;101013.09;4986811;28;19929;-79
2022/07/30 02:49:56;;;;;;;;;;;;;;;15.70;91.05;101019.56;4987772;28;20009;-80
2022/07/30 02:52:24;;;;;;;;;;;;;;;15.74;90.97;101017.38;4986984;28;19953;-79
2022/07/30 02:54:52;;;;;;;;;;;;;;;15.80;90.39;101017.47;4988168;28;20368;-81
2022/07/30 02:57:20;;;;;;;;;;;;;;;15.82;90.39;101017.31;4988600;28;19922;-79
2022/07/30 02:59:47;;;;;;;;;;;;;;;15.76;90.68;101015.38;4989193;28;19922;-81
2022/07/30 03:02:14;;;;;;;;;;;;;;;15.71;90.87;101023.00;4986783;28;19922;-81
2022/07/30 03:04:41;;;;;;;;;;;;;;;15.71;91.22;101017.75;4985180;28;19965;-78
2022/07/30 03:07:09;;;;;;;;;;;;;;;15.77;90.73;101027.56;4983377;28;19922;-79
2022/07/30 03:09:36;;;;;;;;;;;;;;;15.76;90.67;101025.94;4986331;28;19977;-79
2022/07/30 03:12:03;;;;;;;;;;;;;;;15.72;90.43;101025.47;4987725;28;19953;-80
2022/07/30 03:14:30;;;;;;;;;;;;;;;15.79;90.36;101030.84;4986889;28;19922;-81
2022/07/30 03:16:57;;;;;;;;;;;;;;;15.83;90.17;101029.50;4986867;28;19923;-79
2022/07/30 03:19:25;;;;;;;;;;;;;;;15.76;90.49;101025.94;4983407;28;20000;-80
2022/07/30 03:21:53;;;;;;;;;;;;;;;15.75;90.72;101026.94;4983699;28;19922;-81
2022/07/30 03:24:23;;;;;;;;;;;;;;;15.60;90.92;101026.91;4981785;28;20347;-78
2022/07/30 03:26:51;;;;;;;;;;;;;;;15.47;91.61;101029.31;4985114;28;19956;-82
2022/07/30 03:29:18;;;;;;;;;;;;;;;15.40;91.94;101031.84;4986975;28;19929;-81
2022/07/30 03:31:45;;;;;;;;;;;;;;;15.35;92.62;101023.66;4986549;28;19949;-79
2022/07/30 03:34:11;;;;;;;;;;;;;;;15.32;92.51;101028.44;4987372;28;19961;-81
2022/07/30 03:36:38;;;;;;;;;;;;;;;15.26;92.88;101019.44;4984814;28;19998;-79
2022/07/30 03:39:06;;;;;;;;;;;;;;;15.19;93.38;101018.50;4982688;28;19928;-80
2022/07/30 03:41:35;;;;;;;;;;;;;;;15.15;93.52;101014.56;4983255;28;19977;-80
2022/07/30 03:44:02;;;;;;;;;;;;;;;15.14;93.70;101023.47;4981734;28;19953;-81
2022/07/30 03:46:29;;;;;;;;;;;;;;;15.03;94.08;101018.63;4983910;28;19985;-78
2022/07/30 03:48:56;;;;;;;;;;;;;;;15.00;94.69;101011.88;4985764;28;20356;-81
2022/07/30 03:51:23;;;;;;;;;;;;;;;14.95;94.87;101006.31;4981590;28;19965;-78
2022/07/30 03:53:51;;;;;;;;;;;;;;;14.91;95.17;101011.13;4979613;28;20385;-81
2022/07/30 03:56:18;;;;;;;;;;;;;;;14.86;95.41;101007.38;4981253;28;20333;-79
2022/07/30 03:58:46;;;;;;;;;;;;;;;14.85;95.66;101021.53;4978565;28;19922;-78
2022/07/30 04:01:13;;;;;;;;;;;;;;;14.89;95.35;101017.56;4985234;28;20437;-82
2022/07/30 04:03:39;;;;;;;;;;;;;;;14.92;95.33;101023.31;4981181;28;19926;-80
2022/07/30 04:06:06;;;;;;;;;;;;;;;14.83;95.29;101019.06;4980418;28;20416;-79
2022/07/30 04:08:32;;;;;;;;;;;;;;;14.83;95.49;101026.16;4979475;28;20018;-81
2022/07/30 04:10:59;;;;;;;;;;;;;;;14.89;95.64;101022.81;4979052;28;20384;-78
2022/07/30 04:13:25;;;;;;;;;;;;;;;14.89;95.68;101028.91;4980120;28;19922;-79
2022/07/30 04:15:55;;;;;;;;;;;;;;;14.87;95.78;101038.00;4981116;28;19922;-80
2022/07/30 04:18:22;;;;;;;;;;;;;;;14.89;95.89;101034.19;4981132;28;19922;-80
2022/07/30 04:20:51;;;;;;;;;;;;;;;15.05;95.35;101043.00;4977686;28;19973;-80
2022/07/30 04:23:18;;;;;;;;;;;;;;;15.05;95.22;101041.19;4976595;28;19922;-78
2022/07/30 04:25:46;;;;;;;;;;;;;;;15.10;95.02;101051.19;4978203;28;19965;-80
2022/07/30 04:28:13;;;;;;;;;;;;;;;15.15;94.91;101048.81;4979914;28;20007;-78
2022/07/30 04:30:40;;;;;;;;;;;;;;;15.29;94.59;101050.72;4978365;28;19957;-80
2022/07/30 04:33:08;;;;;;;;;;;;;;;15.34;94.28;101053.63;4978388;28;19925;-78
2022/07/30 04:35:35;;;;;;;;;;;;;;;15.36;94.34;101058.75;4975405;28;19968;-78
2022/07/30 04:38:02;;;;;;;;;;;;;;;15.42;94.13;101066.78;4975936;28;19957;-79
2022/07/30 04:40:30;;;;;;;;;;;;;;;15.49;94.26;101061.59;4978155;28;20274;-79
2022/07/30 04:42:56;;;;;;;;;;;;;;;15.53;93.79;101063.72;4978033;28;19922;-82
2022/07/30 04:45:23;;;;;;;;;;;;;;;15.59;93.95;101072.78;4978503;28;19930;-80
2022/07/30 04:47:52;;;;;;;;;;;;;;;15.76;93.36;101089.25;4980948;28;20353;-79
2022/07/30 04:50:21;;;;;;;;;;;;;;;15.87;92.99;101091.47;4980373;28;19926;-81
2022/07/30 04:52:48;;;;;;;;;;;;;;;16.03;92.66;101095.78;4980408;28;20401;-81
2022/07/30 04:55:15;;;;;;;;;;;;;;;16.04;92.77;101097.41;4980809;28;19932;-79
2022/07/30 04:57:42;;;;;;;;;;;;;;;16.19;92.21;101096.41;4980367;28;19922;-80
2022/07/30 05:00:09;;;;;;;;;;;;;;;16.29;92.20;101095.34;4979370;28;19932;-81
2022/07/30 05:02:37;;;;;;;;;;;;;;;16.33;92.24;101099.25;4982896;28;19925;-81
2022/07/30 05:05:04;;;;;;;;;;;;;;;16.47;92.17;101093.16;4987068;28;19922;-81
2022/07/30 05:07:32;;;;;;;;;;;;;;;16.58;91.93;101095.31;4986658;28;19945;-82
2022/07/30 05:09:59;;;;;;;;;;;;;;;16.74;91.71;101102.25;4985246;28;19922;-81
2022/07/30 05:12:31;;;;;;;;;;;;;;;16.85;91.18;101107.88;4982626;28;19932;-80
2022/07/30 05:14:58;;;;;;;;;;;;;;;17.04;90.59;101113.56;4983130;28;19933;-84
2022/07/30 05:17:24;;;;;;;;;;;;;;;16.97;90.90;101105.59;4980919;28;19961;-81
2022/07/30 05:19:51;;;;;;;;;;;;;;;17.16;90.57;101115.53;4980299;28;20423;-81
2022/07/30 05:22:17;;;;;;;;;;;;;;;17.25;90.43;101114.44;4980269;28;20375;-81
2022/07/30 05:24:45;;;;;;;;;;;;;;;17.43;90.31;101126.41;4980806;28;20404;-80
2022/07/30 05:27:11;;;;;;;;;;;;;;;17.33;91.44;101117.97;4981263;28;19929;-79
2022/07/30 05:29:38;;;;;;;;;;;;;;;17.79;90.62;101113.94;4980485;28;19921;-81
2022/07/30 05:32:04;;;;;;;;;;;;;;;17.92;90.20;101120.34;4981239;28;19948;-80
2022/07/30 05:34:31;;;;;;;;;;;;;;;18.06;88.92;101125.53;4980652;28;19980;-82
2022/07/30 05:36:57;;;;;;;;;;;;;;;18.40;88.44;101123.94;4979768;28;19976;-80
2022/07/30 05:39:24;;;;;;;;;;;;;;;18.22;88.06;101122.59;4980239;28;19938;-81
2022/07/30 05:41:52;;;;;;;;;;;;;;;18.38;88.03;101136.56;4981799;28;19945;-80
2022/07/30 05:44:18;;;;;;;;;;;;;;;18.08;88.41;101133.28;4985850;28;19965;-81
2022/07/30 05:46:45;;;;;;;;;;;;;;;17.81;90.30;101137.56;4982297;28;19965;-82
2022/07/30 05:49:11;;;;;;;;;;;;;;;17.91;90.46;101130.13;4980200;28;19988;-80
2022/07/30 05:51:38;;;;;;;;;;;;;;;17.72;91.06;101130.78;4980207;28;19926;-80
2022/07/30 05:54:04;;;;;;;;;;;;;;;18.42;88.98;101137.81;4980502;28;19945;-81
2022/07/30 05:56:30;;;;;;;;;;;;;;;18.47;87.72;101138.00;4979701;28;19945;-81
2022/07/30 05:58:58;;;;;;;;;;;;;;;18.98;85.82;101142.97;4978843;28;19980;-81
2022/07/30 06:01:25;;;;;;;;;;;;;;;18.89;84.92;101148.47;4977909;28;19922;-81
2022/07/30 06:03:51;;;;;;;;;;;;;;;19.24;84.37;101159.00;4977557;28;19929;-81
2022/07/30 06:06:18;;;;;;;;;;;;;;;18.93;85.12;101151.53;4976578;28;20411;-79
2022/07/30 06:08:44;;;;;;;;;;;;;;;18.66;86.27;101147.13;4978312;28;20371;-81
2022/07/30 06:11:11;;;;;;;;;;;;;;;18.63;86.34;101155.47;4979874;28;19972;-82
2022/07/30 06:13:37;;;;;;;;;;;;;;;17.79;90.12;101137.75;4980481;28;19928;-81
2022/07/30 06:16:05;;;;;;;;;;;;;;;17.76;91.42;101145.25;4978596;28;19922;-82
2022/07/30 06:18:32;;;;;;;;;;;;;;;17.79;91.54;101140.41;4977346;28;19922;-80
2022/07/30 06:20:58;;;;;;;;;;;;;;;17.63;92.53;101148.56;4977856;28;20037;-80
2022/07/30 06:23:25;;;;;;;;;;;;;;;17.72;92.82;101146.66;4977136;28;19960;-79
2022/07/30 06:25:51;;;;;;;;;;;;;;;17.81;91.84;101148.16;4977381;28;19960;-80
2022/07/30 06:28:18;;;;;;;;;;;;;;;17.81;91.42;101153.44;4976051;28;20297;-80
2022/07/30 06:30:46;;;;;;;;;;;;;;;17.88;91.37;101151.69;4976685;28;19977;-80
2022/07/30 06:33:14;;;;;;;;;;;;;;;18.18;89.48;101169.03;4977905;28;19942;-81
2022/07/30 06:35:41;;;;;;;;;;;;;;;17.76;90.68;101164.63;4978703;28;19922;-82
2022/07/30 06:38:07;;;;;;;;;;;;;;;18.45;88.92;101175.31;4979802;28;19925;-79
2022/07/30 06:40:34;;;;;;;;;;;;;;;19.99;82.31;101189.75;4979678;28;20383;-81
2022/07/30 06:43:01;;;;;;;;;;;;;;;20.31;79.51;101166.84;4980440;28;19953;-80
2022/07/30 06:45:28;;;;;;;;;;;;;;;21.10;77.29;101161.28;4979965;28;20016;-82
2022/07/30 06:47:56;;;;;;;;;;;;;;;20.95;76.32;101159.94;4980039;28;20447;-81
2022/07/30 06:50:24;;;;;;;;;;;;;;;20.63;77.23;101165.16;4980461;28;20009;-80
2022/07/30 06:52:50;;;;;;;;;;;;;;;19.62;81.44;101179.72;4980202;28;19977;-83
2022/07/30 06:55:17;;;;;;;;;;;;;;;20.15;80.14;101178.72;4978342;28;19922;-82
2022/07/30 06:57:43;;;;;;;;;;;;;;;20.56;77.56;101175.00;4981465;28;19926;-83
2022/07/30 07:00:11;;;;;;;;;;;;;;;20.77;76.69;101182.72;4983488;28;19969;-80
2022/07/30 07:02:38;;;;;;;;;;;;;;;20.95;75.69;101181.22;4983444;28;19962;-79
2022/07/30 07:05:06;;;;;;;;;;;;;;;20.56;76.87;101196.25;4984421;28;20018;-82
2022/07/30 07:07:34;;;;;;;;;;;;;;;20.57;77.97;101186.44;4983828;28;20291;-79
2022/07/30 07:10:00;;;;;;;;;;;;;;;20.36;78.81;101187.47;4983821;28;19969;-79
2022/07/30 07:12:26;;;;;;;;;;;;;;;19.79;80.17;101188.94;4982393;28;19928;-81
2022/07/30 07:14:53;;;;;;;;;;;;;;;19.50;81.20;101193.53;4982507;28;19974;-81
2022/07/30 07:17:19;;;;;;;;;;;;;;;19.51;81.54;101192.56;4980596;28;19929;-81
2022/07/30 07:19:46;;;;;;;;;;;;;;;19.79;81.06;101187.09;4980457;28;19929;-80
2022/07/30 07:22:12;;;;;;;;;;;;;;;19.78;79.98;101193.44;4980840;28;19961;-82
2022/07/30 07:24:40;;;;;;;;;;;;;;;20.67;78.08;101192.97;4977421;28;19926;-77
2022/07/30 07:27:07;;;;;;;;;;;;;;;21.49;73.69;101178.91;4978107;28;19980;-79
2022/07/30 07:29:33;;;;;;;;;;;;;;;21.60;73.24;101181.94;4981435;28;19969;-80
2022/07/30 07:32:00;;;;;;;;;;;;;;;22.45;71.00;101169.75;4983190;28;19926;-80
2022/07/30 07:34:26;;;;;;;;;;;;;;;23.42;68.23;101176.78;4983402;28;19929;-81
2022/07/30 07:36:52;;;;;;;;;;;;;;;23.20;67.32;101183.63;4983689;28;19922;-81
2022/07/30 07:39:19;;;;;;;;;;;;;;;22.63;69.13;101188.44;4980757;28;19929;-80
2022/07/30 07:41:47;;;;;;;;;;;;;;;23.53;67.92;101180.56;4978868;28;19922;-78
2022/07/30 07:44:13;;;;;;;;;;;;;;;22.88;67.96;101182.22;4978325;28;20405;-80
2022/07/30 07:46:40;;;;;;;;;;;;;;;22.98;67.92;101183.31;4978128;28;19972;-79
2022/07/30 07:49:06;;;;;;;;;;;;;;;23.62;65.91;101181.88;4977768;28;19981;-79
2022/07/30 07:51:34;;;;;;;;;;;;;;;24.78;63.66;101196.31;4978226;28;19972;-80
2022/07/30 07:54:01;;;;;;;;;;;;;;;24.32;63.43;101187.28;5001405;23;19921;-79
2022/07/30 07:56:27;;;;;;;;;;;;;;;23.33;66.28;101191.47;5032079;28;19976;-81
2022/07/30 07:58:56;;;;;;;;;;;;;;;23.51;66.08;101187.94;5039583;28;20003;-82
2022/07/30 08:01:22;;;;;;;;;;;;;;;23.53;66.71;101187.72;5039714;28;19921;-82
2022/07/30 08:03:49;;;;;;;;;;;;;;;24.23;64.86;101191.31;5039813;28;19928;-81
2022/07/30 08:06:15;;;;;;;;;;;;;;;23.25;66.06;101189.13;5040657;28;19967;-81
2022/07/30 08:08:42;;;;;;;;;;;;;;;23.44;65.47;101182.69;5038996;28;19932;-80
2022/07/30 08:11:08;;;;;;;;;;;;;;;23.81;65.64;101187.91;5040459;28;20398;-81
2022/07/30 08:13:35;;;;;;;;;;;;;;;24.27;64.04;101178.34;5039825;28;20399;-80
2022/07/30 08:16:07;;;;;;;;;;;;;;;23.70;65.19;101180.69;5040182;28;19921;-80
2022/07/30 08:18:33;;;;;;;;;;;;;;;22.61;68.24;101190.50;5038307;28;20417;-81
2022/07/30 08:20:59;;;;;;;;;;;;;;;23.63;65.35;101183.47;5038614;28;20232;-80
2022/07/30 08:23:26;;;;;;;;;;;;;;;24.65;62.38;101186.66;5022532;28;19960;-79
2022/07/30 08:25:52;;;;;;;;;;;;;;;24.79;61.92;101185.34;5010728;28;20291;-79
2022/07/30 08:28:19;;;;;;;;;;;;;;;24.65;62.68;101191.19;5014286;28;19985;-79
2022/07/30 08:30:48;;;;;;;;;;;;;;;24.47;62.79;101181.47;5019323;28;20375;-79
2022/07/30 08:33:16;;;;;;;;;;;;;;;24.19;63.75;101181.31;5021362;28;19921;-79
2022/07/30 08:35:42;;;;;;;;;;;;;;;24.75;62.91;101194.09;5019850;28;19925;-79
2022/07/30 08:38:09;;;;;;;;;;;;;;;24.82;61.92;101186.75;5019807;28;20234;-78
2022/07/30 08:40:36;;;;;;;;;;;;;;;23.80;64.89;101189.78;5018063;28;20012;-80
2022/07/30 08:43:03;;;;;;;;;;;;;;;23.74;65.65;101187.22;5020450;28;20008;-79
2022/07/30 08:45:30;;;;;;;;;;;;;;;23.90;65.03;101186.53;5006765;28;19923;-79
2022/07/30 08:47:57;;;;;;;;;;;;;;;23.70;65.14;101183.38;5009294;28;19922;-79
2022/07/30 08:50:25;;;;;;;;;;;;;;;23.04;66.69;101181.63;5014942;28;19966;-79
2022/07/30 08:52:54;;;;;;;;;;;;;;;23.54;66.82;101194.72;5005540;28;19960;-79
2022/07/30 08:55:21;;;;;;;;;;;;;;;23.07;67.13;101186.50;5008730;28;19961;-80
2022/07/30 08:57:47;;;;;;;;;;;;;;;24.14;64.40;101185.50;5012082;28;19953;-78
2022/07/30 09:00:15;;;;;;;;;;;;;;;24.37;63.37;101186.59;5013026;28;20406;-79
2022/07/30 09:02:41;;;;;;;;;;;;;;;24.23;63.48;101187.84;5022386;28;19928;-79
2022/07/30 09:05:09;;;;;;;;;;;;;;;24.46;63.12;101198.56;5023336;28;20397;-82
2022/07/30 09:07:37;;;;;;;;;;;;;;;24.59;62.14;101194.81;5023016;28;19979;-79
2022/07/30 09:10:04;;;;;;;;;;;;;;;24.89;60.82;101198.16;5020743;28;19991;-79
2022/07/30 09:12:34;;;;;;;;;;;;;;;24.82;61.10;101192.09;5022739;28;20012;-81
2022/07/30 09:15:01;;;;;;;;;;;;;;;23.66;63.41;101200.91;5022441;28;19922;-80
2022/07/30 09:17:28;;;;;;;;;;;;;;;24.35;62.45;101204.72;5003061;28;19922;-80
2022/07/30 09:20:02;;;;;;;;;;;;;;;25.12;60.76;101191.91;5003394;28;19957;-79
2022/07/30 09:22:41;;;;;;;;;;;;;;;25.46;59.36;101199.00;5001338;28;19968;-81
2022/07/30 09:25:08;;;;;;;;;;;;;;;25.04;60.15;101195.81;5013878;28;19926;-82
2022/07/30 09:27:43;;;;;;;;;;;;;;;24.38;61.60;101202.41;5010665;28;20052;-80
2022/07/30 09:30:12;;;;;;;;;;;;;;;25.13;60.43;101199.72;5012025;28;19944;-80
2022/07/30 09:32:46;;;;;;;;;;;;;;;24.73;59.57;101199.69;5012043;28;19984;-80
2022/07/30 09:35:13;;;;;;;;;;;;;;;24.86;59.23;101203.16;5012168;28;20380;-79
2022/07/30 09:37:41;;;;;;;;;;;;;;;25.54;57.77;101194.28;5010831;28;19921;-80
2022/07/30 09:40:11;;;;;;;;;;;;;;;25.35;57.55;101191.03;5018913;28;19965;-79
2022/07/30 09:42:38;;;;;;;;;;;;;;;24.67;57.71;101192.59;5013191;28;19926;-80
2022/07/30 09:45:05;;;;;;;;;;;;;;;24.69;58.48;101195.84;5002193;28;20275;-79
2022/07/30 09:47:33;;;;;;;;;;;;;;;25.52;57.12;101186.47;5000611;28;19957;-79
2022/07/30 09:50:03;;;;;;;;;;;;;;;25.46;57.37;101180.25;5011022;28;19922;-79
2022/07/30 09:52:30;;;;;;;;;;;;;;;24.99;57.00;101189.53;5005087;28;20186;-77
2022/07/30 09:54:57;;;;;;;;;;;;;;;25.28;53.85;101196.53;5007162;28;19971;-78
2022/07/30 09:57:24;;;;;;;;;;;;;;;25.51;53.50;101192.13;5020547;28;19952;-80
2022/07/30 09:59:50;;;;;;;;;;;;;;;25.57;53.78;101191.13;5021278;28;19969;-80
2022/07/30 10:02:18;;;;;;;;;;;;;;;25.15;53.14;101183.41;5022844;28;19921;-81
2022/07/30 10:04:44;;;;;;;;;;;;;;;25.16;54.63;101192.25;5015570;28;19947;-81
2022/07/30 10:07:17;;;;;;;;;;;;;;;25.06;55.79;101187.50;5007627;28;19969;-81
2022/07/30 10:09:45;;;;;;;;;;;;;;;24.84;54.96;101186.50;5005558;28;19957;-81
2022/07/30 10:12:14;;;;;;;;;;;;;;;24.97;54.70;101186.28;5005765;28;19922;-82
2022/07/30 10:14:43;;;;;;;;;;;;;;;25.13;52.76;101177.47;5005688;28;19928;-83
2022/07/30 10:17:10;;;;;;;;;;;;;;;24.88;54.22;101180.47;5005301;28;19928;-81
2022/07/30 10:19:36;;;;;;;;;;;;;;;25.15;54.95;101180.72;5006624;28;19978;-81
2022/07/30 10:22:03;;;;;;;;;;;;;;;25.28;55.40;101175.09;5013097;28;20403;-81
2022/07/30 10:24:30;;;;;;;;;;;;;;;25.44;53.93;101171.63;5006878;28;19975;-78
2022/07/30 10:26:57;;;;;;;;;;;;;;;24.93;54.04;101182.44;5002247;28;20468;-79
2022/07/30 10:29:24;;;;;;;;;;;;;;;25.69;52.41;101173.16;5006955;28;19972;-78
2022/07/30 10:31:51;;;;;;;;;;;;;;;25.01;51.44;101179.41;5011819;28;19981;-79
2022/07/30 10:34:18;;;;;;;;;;;;;;;24.79;52.50;101174.66;5001341;28;19961;-79
2022/07/30 10:36:47;;;;;;;;;;;;;;;25.21;50.28;101174.41;5016936;28;19965;-79
2022/07/30 10:39:15;;;;;;;;;;;;;;;25.20;52.56;101175.47;5020743;28;20017;-81
2022/07/30 10:41:47;;;;;;;;;;;;;;;24.85;53.64;101183.59;5021925;28;19977;-82
2022/07/30 10:44:31;;;;;;;;;;;;;;;25.12;52.64;101184.69;5021780;28;19979;-81
2022/07/30 10:47:02;;;;;;;;;;;;;;;25.36;52.95;101177.38;5020428;28;19985;-81
2022/07/30 10:49:29;;;;;;;;;;;;;;;25.34;51.64;101176.81;5022101;28;19965;-80
2022/07/30 10:51:55;;;;;;;;;;;;;;;25.59;50.57;101172.94;5022549;28;20012;-79
2022/07/30 10:54:38;;;;;;;;;;;;;;;25.14;52.53;101173.75;5020489;28;19964;-80
2022/07/30 10:57:05;;;;;;;;;;;;;;;25.17;51.94;101178.63;5020567;28;19922;-80
2022/07/30 10:59:46;;;;;;;;;;;;;;;25.51;51.76;101165.31;5022578;28;19926;-81
2022/07/30 11:02:14;;;;;;;;;;;;;;;25.55;50.44;101161.06;5022025;28;19921;-81
2022/07/30 11:04:40;;;;;;;;;;;;;;;25.36;49.81;101168.53;5023323;28;19955;-81
2022/07/30 11:07:28;;;;;;;;;;;;;;;25.68;49.78;101152.75;5024751;28;19936;-81
2022/07/30 11:09:55;;;;;;;;;;;;;;;25.49;50.99;101159.38;5022024;28;19996;-81
2022/07/30 11:12:36;;;;;;;;;;;;;;;25.40;51.18;101158.97;5009786;28;19968;-83
2022/07/30 11:15:03;;;;;;;;;;;;;;;25.25;50.69;101159.50;5006942;28;19921;-83
2022/07/30 11:17:53;;;;;;;;;;;;;;;25.16;52.58;101157.44;5005845;28;19929;-82
2022/07/30 11:20:20;;;;;;;;;;;;;;;25.38;51.63;101156.53;5005403;28;19961;-82
2022/07/30 11:22:48;;;;;;;;;;;;;;;25.70;51.14;101145.28;5006446;28;20008;-81
2022/07/30 11:25:29;;;;;;;;;;;;;;;25.72;49.65;101160.06;5004700;28;19925;-82
2022/07/30 11:27:56;;;;;;;;;;;;;;;25.79;48.23;101154.56;5004169;28;19984;-83
2022/07/30 11:30:34;;;;;;;;;;;;;;;25.79;47.89;101159.91;5003816;28;19922;-82
2022/07/30 11:33:19;;;;;;;;;;;;;;;26.19;46.95;101157.03;5005709;28;19922;-81
2022/07/30 11:36:04;;;;;;;;;;;;;;;25.59;48.52;101154.19;5013161;28;19928;-79
2022/07/30 11:38:50;;;;;;;;;;;;;;;25.79;48.25;101151.88;5026548;28;19928;-79
2022/07/30 11:41:16;;;;;;;;;;;;;;;25.87;48.07;101161.38;5021222;28;19921;-80
2022/07/30 11:43:43;;;;;;;;;;;;;;;25.63;48.04;101145.41;5023563;28;20012;-81
2022/07/30 11:46:10;;;;;;;;;;;;;;;25.83;48.25;101152.19;5025500;28;19967;-80
2022/07/30 11:48:37;;;;;;;;;;;;;;;25.77;47.65;101152.13;5025082;28;19983;-79
2022/07/30 11:51:05;;;;;;;;;;;;;;;25.92;47.58;101154.22;5024567;28;19931;-79
2022/07/30 11:53:32;;;;;;;;;;;;;;;25.74;47.42;101151.78;5024408;28;19969;-79
2022/07/30 11:55:59;;;;;;;;;;;;;;;25.84;47.54;101148.47;5022950;28;19925;-80
2022/07/30 11:58:27;;;;;;;;;;;;;;;26.08;46.90;101150.69;5022356;28;19922;-79
2022/07/30 12:00:54;;;;;;;;;;;;;;;26.55;46.03;101152.97;5021915;28;19964;-80
2022/07/30 12:03:22;;;;;;;;;;;;;;;26.54;43.83;101154.03;5024265;28;19921;-80
2022/07/30 12:05:49;;;;;;;;;;;;;;;26.47;44.92;101157.97;5022935;28;20336;-79
2022/07/30 12:08:17;;;;;;;;;;;;;;;26.83;44.88;101141.25;5021715;28;19921;-80
2022/07/30 12:10:44;;;;;;;;;;;;;;;26.37;44.32;101150.59;5022090;28;20438;-81
2022/07/30 12:13:11;;;;;;;;;;;;;;;26.31;45.36;101147.03;5024049;28;20276;-79
2022/07/30 12:15:38;;;;;;;;;;;;;;;26.31;44.66;101140.88;5024240;28;19961;-80
2022/07/30 12:18:05;;;;;;;;;;;;;;;26.25;44.05;101152.53;5024053;28;19921;-79
2022/07/30 12:20:31;;;;;;;;;;;;;;;26.30;45.10;101144.56;5024001;28;19922;-80
2022/07/30 12:22:57;;;;;;;;;;;;;;;26.45;44.46;101139.44;5023777;28;19971;-80
2022/07/30 12:25:25;;;;;;;;;;;;;;;26.38;45.07;101130.75;5023121;28;19968;-80
2022/07/30 12:27:52;;;;;;;;;;;;;;;26.63;43.29;101141.00;5024768;28;19971;-81
2022/07/30 12:30:18;;;;;;;;;;;;;;;26.51;44.10;101129.56;5024927;28;19932;-81
2022/07/30 12:32:45;;;;;;;;;;;;;;;26.58;43.79;101135.56;5024224;28;19921;-83
2022/07/30 12:35:12;;;;;;;;;;;;;;;26.51;44.18;101137.63;5024373;28;19928;-79
2022/07/30 12:37:39;;;;;;;;;;;;;;;26.26;45.09;101130.03;5023854;28;19921;-81
2022/07/30 12:40:08;;;;;;;;;;;;;;;26.60;44.59;101134.25;5023060;28;19980;-79
2022/07/30 12:42:36;;;;;;;;;;;;;;;26.58;44.11;101128.31;5024576;28;19921;-81
2022/07/30 12:45:02;;;;;;;;;;;;;;;26.64;43.96;101124.63;5025635;28;19986;-82